Time;durP1;ratioP1;P1;durP2;ratioP2;P2;SDS_P1;SDS_P2;PMS_P1;PMS_P2;Temp;Humidity;BMP_temperature;BMP_pressure;BME280_temperature;BME280_humidity;BME280_pressure;Samples;Min_cycle;Max_cycle;Signal;HPM_P1;HPM_P2
2021/05/14 00:00:48;;;;;;;19.87;13.97;;;7.30;99.90;;;;;;5066611;28;20227;-64
2021/05/14 00:03:16;;;;;;;19.23;14.37;;;7.30;99.90;;;;;;5065816;28;20212;-64
2021/05/14 00:05:44;;;;;;;19.00;14.37;;;7.30;99.90;;;;;;5068347;28;20249;-64
2021/05/14 00:08:13;;;;;;;18.80;13.37;;;7.30;99.90;;;;;;5066242;28;20223;-63
2021/05/14 00:10:41;;;;;;;17.80;12.93;;;7.30;99.90;;;;;;5067686;28;20253;-64
2021/05/14 00:13:10;;;;;;;17.47;12.63;;;7.30;99.90;;;;;;5068551;28;20259;-64
2021/05/14 00:15:38;;;;;;;17.93;12.97;;;7.30;99.90;;;;;;5066287;28;20299;-63
2021/05/14 00:18:06;;;;;;;17.60;12.93;;;7.20;99.90;;;;;;5065677;28;20195;-63
2021/05/14 00:20:34;;;;;;;17.97;12.70;;;7.10;99.90;;;;;;5068555;28;20192;-64
2021/05/14 00:23:01;;;;;;;20.60;14.73;;;7.10;99.90;;;;;;5061816;28;20210;-64
2021/05/14 00:25:31;;;;;;;25.70;15.53;;;7.10;99.90;;;;;;5065909;28;20606;-64
2021/05/14 00:27:58;;;;;;;24.50;16.07;;;7.10;99.90;;;;;;5064428;28;20659;-64
2021/05/14 00:30:26;;;;;;;19.93;14.47;;;7.10;99.90;;;;;;5057615;28;20224;-63
2021/05/14 00:32:54;;;;;;;23.80;15.60;;;7.10;99.90;;;;;;5064937;28;20283;-64
2021/05/14 00:35:22;;;;;;;26.27;16.90;;;7.10;99.90;;;;;;5067718;28;20192;-64
2021/05/14 00:37:49;;;;;;;29.47;17.10;;;7.10;99.90;;;;;;5065584;28;20323;-64
2021/05/14 00:40:18;;;;;;;28.27;17.60;;;7.00;99.90;;;;;;5067789;28;20192;-64
2021/05/14 00:42:46;;;;;;;37.00;22.00;;;7.00;99.90;;;;;;5065669;28;20291;-64
2021/05/14 00:45:14;;;;;;;39.13;22.20;;;7.00;99.90;;;;;;5065093;28;20199;-64
2021/05/14 00:47:42;;;;;;;34.03;19.40;;;7.00;99.90;;;;;;5059595;28;20862;-64
2021/05/14 00:50:11;;;;;;;31.30;18.90;;;7.00;99.90;;;;;;5067407;28;20188;-64
2021/05/14 00:52:42;;;;;;;32.13;18.20;;;7.00;99.90;;;;;;5066399;28;20188;-64
2021/05/14 00:55:11;;;;;;;31.30;17.97;;;6.90;99.90;;;;;;5066151;28;20187;-64
2021/05/14 00:57:40;;;;;;;32.47;18.50;;;6.90;99.90;;;;;;5064120;28;20199;-63
2021/05/14 01:00:10;;;;;;;33.00;19.10;;;6.90;99.90;;;;;;5062754;28;20220;-64
2021/05/14 01:02:38;;;;;;;37.00;21.03;;;6.90;99.90;;;;;;5058097;28;20215;-64
2021/05/14 01:05:07;;;;;;;44.33;23.03;;;6.90;99.90;;;;;;5062083;28;20246;-63
2021/05/14 01:07:35;;;;;;;40.83;22.67;;;6.90;99.90;;;;;;5064857;28;20237;-64
2021/05/14 01:10:04;;;;;;;38.73;20.73;;;6.90;99.90;;;;;;5063051;28;20639;-64
2021/05/14 01:12:32;;;;;;;41.30;21.27;;;6.90;99.90;;;;;;5062015;28;20602;-63
2021/05/14 01:14:59;;;;;;;37.83;21.10;;;6.90;99.90;;;;;;5053656;28;20279;-64
2021/05/14 01:17:30;;;;;;;42.50;22.33;;;6.80;99.90;;;;;;5059682;28;20219;-64
2021/05/14 01:19:58;;;;;;;39.83;21.43;;;6.80;99.90;;;;;;5064314;28;20196;-64
2021/05/14 01:22:28;;;;;;;36.83;20.87;;;6.80;99.90;;;;;;5064417;28;21157;-64
2021/05/14 01:24:56;;;;;;;37.80;20.27;;;6.80;99.90;;;;;;5063953;28;20196;-64
2021/05/14 01:27:24;;;;;;;42.47;20.90;;;6.80;99.90;;;;;;5062543;28;20192;-63
2021/05/14 01:29:51;;;;;;;33.53;19.03;;;6.80;99.90;;;;;;5059954;28;20235;-63
2021/05/14 01:32:19;;;;;;;41.63;21.70;;;6.80;99.90;;;;;;5065758;28;20192;-63
2021/05/14 01:34:47;;;;;;;41.07;20.83;;;6.80;99.90;;;;;;5064902;28;20192;-63
2021/05/14 01:37:15;;;;;;;43.70;21.90;;;6.80;99.90;;;;;;5060568;28;20339;-63
2021/05/14 01:39:43;;;;;;;41.63;21.00;;;6.80;99.90;;;;;;5065281;28;20192;-64
2021/05/14 01:42:12;;;;;;;41.40;20.83;;;6.80;99.90;;;;;;5064073;28;20691;-63
2021/05/14 01:44:39;;;;;;;45.63;22.00;;;6.80;99.90;;;;;;5062549;28;20282;-63
2021/05/14 01:47:07;;;;;;;36.40;19.83;;;6.70;99.90;;;;;;5060825;28;20219;-63
2021/05/14 01:49:35;;;;;;;41.37;21.97;;;6.70;99.90;;;;;;5055849;28;20193;-64
2021/05/14 01:52:04;;;;;;;49.47;24.63;;;6.70;99.90;;;;;;5066007;28;20192;-63
2021/05/14 01:54:31;;;;;;;58.63;28.07;;;6.70;99.90;;;;;;5059951;28;20251;-63
2021/05/14 01:57:00;;;;;;;62.33;29.03;;;6.80;99.90;;;;;;5054794;28;20279;-63
2021/05/14 01:59:28;;;;;;;54.47;27.07;;;6.80;99.90;;;;;;5062805;28;20192;-64
2021/05/14 02:01:56;;;;;;;50.00;24.77;;;6.80;99.90;;;;;;5064441;28;20223;-63
2021/05/14 02:04:24;;;;;;;66.10;29.77;;;6.70;99.90;;;;;;5058091;28;20196;-63
2021/05/14 02:06:53;;;;;;;69.33;31.43;;;6.70;99.90;;;;;;5059800;28;20558;-63
2021/05/14 02:09:21;;;;;;;63.57;30.47;;;6.80;99.90;;;;;;5056590;28;20623;-64
2021/05/14 02:11:49;;;;;;;62.10;28.80;;;6.90;99.90;;;;;;5058052;28;20279;-63
2021/05/14 02:14:18;;;;;;;62.40;29.17;;;6.80;99.90;;;;;;5063142;28;22251;-63
2021/05/14 02:16:45;;;;;;;59.70;27.97;;;6.80;99.90;;;;;;5059598;28;20231;-63
2021/05/14 02:19:14;;;;;;;57.63;26.83;;;6.70;99.90;;;;;;5062597;28;20194;-64
2021/05/14 02:21:42;;;;;;;60.70;26.77;;;6.70;99.90;;;;;;5059754;28;20196;-64
2021/05/14 02:24:10;;;;;;;56.93;26.87;;;6.60;99.90;;;;;;5068962;28;20214;-64
2021/05/14 02:26:38;;;;;;;52.83;25.97;;;6.60;99.90;;;;;;5068863;28;20224;-63
2021/05/14 02:29:06;;;;;;;51.17;25.67;;;6.60;99.90;;;;;;5066757;28;20288;-64
2021/05/14 02:31:35;;;;;;;43.63;21.20;;;6.50;99.90;;;;;;5068584;28;20201;-63
2021/05/14 02:34:03;;;;;;;42.90;21.67;;;6.50;99.90;;;;;;5062150;28;20270;-63
2021/05/14 02:36:30;;;;;;;39.43;20.27;;;6.50;99.90;;;;;;5069813;28;20195;-64
2021/05/14 02:38:59;;;;;;;39.77;19.93;;;6.40;99.90;;;;;;5070478;28;20223;-64
2021/05/14 02:41:26;;;;;;;36.13;19.33;;;6.40;99.90;;;;;;5069824;28;20223;-63
2021/05/14 02:43:54;;;;;;;31.73;17.73;;;6.40;99.90;;;;;;5067788;28;20246;-63
2021/05/14 02:46:22;;;;;;;37.47;19.27;;;6.30;99.90;;;;;;5068086;28;20188;-64
2021/05/14 02:48:51;;;;;;;41.20;21.07;;;6.20;99.90;;;;;;5064504;28;20200;-63
2021/05/14 02:51:19;;;;;;;40.43;20.50;;;6.20;99.90;;;;;;5068206;28;20682;-64
2021/05/14 02:53:47;;;;;;;39.93;20.47;;;6.30;99.90;;;;;;5069146;28;20216;-63
2021/05/14 02:56:14;;;;;;;41.93;22.37;;;6.30;99.90;;;;;;5071334;28;20275;-63
2021/05/14 02:58:42;;;;;;;44.27;22.87;;;6.30;99.90;;;;;;5068806;28;20333;-64
2021/05/14 03:01:10;;;;;;;49.37;24.07;;;6.30;99.90;;;;;;5068710;28;20265;-63
2021/05/14 03:03:38;;;;;;;57.27;25.83;;;6.30;99.90;;;;;;5064548;28;20797;-64
2021/05/14 03:06:07;;;;;;;58.97;27.60;;;6.30;99.90;;;;;;5066131;28;20222;-63
2021/05/14 03:08:35;;;;;;;68.50;28.20;;;6.30;99.90;;;;;;5060842;28;20220;-63
2021/05/14 03:11:03;;;;;;;65.17;29.53;;;6.30;99.90;;;;;;5068086;28;20326;-63
2021/05/14 03:13:31;;;;;;;63.83;28.93;;;6.30;99.90;;;;;;5067717;28;20274;-64
2021/05/14 03:15:59;;;;;;;59.43;27.53;;;6.30;99.90;;;;;;5065660;28;20229;-63
2021/05/14 03:18:27;;;;;;;59.57;27.43;;;6.30;99.90;;;;;;5061421;28;20189;-63
2021/05/14 03:20:55;;;;;;;63.13;28.33;;;6.30;99.90;;;;;;5068790;28;20811;-63
2021/05/14 03:23:24;;;;;;;61.77;29.17;;;6.30;99.90;;;;;;5067704;28;20921;-63
2021/05/14 03:25:52;;;;;;;57.47;27.07;;;6.40;99.90;;;;;;5064853;28;20784;-63
2021/05/14 03:28:20;;;;;;;53.47;26.70;;;6.50;99.90;;;;;;5066686;28;20605;-64
2021/05/14 03:30:50;;;;;;;52.30;24.87;;;6.50;99.90;;;;;;5068206;28;20228;-64
2021/05/14 03:33:20;;;;;;;51.43;24.17;;;6.50;99.90;;;;;;5066568;28;20203;-63
2021/05/14 03:35:49;;;;;;;49.23;22.90;;;6.50;99.90;;;;;;5064054;28;20249;-63
2021/05/14 03:38:17;;;;;;;53.70;24.47;;;6.40;99.90;;;;;;5067654;28;20724;-63
2021/05/14 03:40:46;;;;;;;48.50;24.40;;;6.50;99.90;;;;;;5067610;28;20220;-63
2021/05/14 03:43:13;;;;;;;55.90;26.57;;;6.40;99.90;;;;;;5065309;28;20252;-63
2021/05/14 03:45:42;;;;;;;65.40;29.93;;;6.50;99.90;;;;;;5044888;28;20254;-63
2021/05/14 03:48:19;;;;;;;63.23;29.67;;;6.60;99.90;;;;;;5065451;28;20198;-63
2021/05/14 03:50:51;;;;;;;73.37;32.07;;;6.60;99.90;;;;;;5064341;28;20228;-63
2021/05/14 03:53:19;;;;;;;77.73;33.80;;;6.70;99.90;;;;;;5062881;28;20195;-64
2021/05/14 03:55:50;;;;;;;84.60;36.13;;;6.80;99.90;;;;;;5065579;28;20654;-63
2021/05/14 03:58:18;;;;;;;86.77;36.90;;;7.00;99.90;;;;;;5063147;28;20223;-64
2021/05/14 04:00:46;;;;;;;84.67;36.73;;;7.20;99.90;;;;;;5065051;28;20303;-64
2021/05/14 04:03:15;;;;;;;84.40;35.83;;;7.40;99.90;;;;;;5065405;28;20772;-63
2021/05/14 04:05:43;;;;;;;80.33;35.73;;;7.50;99.90;;;;;;5064719;28;20192;-63
2021/05/14 04:08:11;;;;;;;81.83;33.87;;;7.50;99.90;;;;;;5064339;28;20199;-63
2021/05/14 04:11:06;;;;;;;73.60;33.13;;;7.60;99.90;;;;;;5068695;28;20224;-63
2021/05/14 04:16:21;;;;;;;71.63;33.30;;;7.70;99.90;;;;;;5068036;28;20188;-63
2021/05/14 04:18:50;;;;;;;74.97;32.37;;;7.70;99.90;;;;;;5047267;28;20193;-64
2021/05/14 04:21:18;;;;;;;72.00;32.83;;;7.80;99.90;;;;;;5066511;28;20220;-63
2021/05/14 04:23:46;;;;;;;73.23;32.17;;;7.80;99.90;;;;;;5066248;28;20215;-63
2021/05/14 04:26:14;;;;;;;70.23;30.00;;;7.80;99.90;;;;;;5067488;28;20284;-63
2021/05/14 04:28:45;;;;;;;70.13;32.90;;;7.80;99.90;;;;;;5064846;28;20262;-63
2021/05/14 04:31:13;;;;;;;66.37;31.37;;;7.80;99.90;;;;;;5069766;28;20196;-63
2021/05/14 04:33:41;;;;;;;66.10;31.17;;;7.70;99.90;;;;;;5065432;28;20291;-63
2021/05/14 04:36:09;;;;;;;58.97;29.53;;;7.70;99.90;;;;;;5066843;28;20663;-63
2021/05/14 04:38:37;;;;;;;57.33;28.77;;;7.70;99.90;;;;;;5063853;28;20228;-63
2021/05/14 04:41:04;;;;;;;54.90;28.20;;;7.70;99.90;;;;;;5063226;28;20636;-64
2021/05/14 04:43:32;;;;;;;59.20;28.33;;;7.70;99.90;;;;;;5063293;28;20200;-63
2021/05/14 04:46:01;;;;;;;52.67;27.17;;;7.70;99.90;;;;;;5061167;28;20193;-64
2021/05/14 04:48:42;;;;;;;59.03;27.63;;;7.70;99.90;;;;;;5058876;28;20924;-63
2021/05/14 04:51:10;;;;;;;52.47;27.43;;;7.70;99.90;;;;;;5061052;28;20291;-63
2021/05/14 04:53:38;;;;;;;52.23;26.33;;;7.70;99.90;;;;;;5063419;28;20680;-64
2021/05/14 04:56:05;;;;;;;51.13;26.17;;;7.80;99.90;;;;;;5066082;28;20280;-64
2021/05/14 04:58:33;;;;;;;47.13;24.83;;;7.80;99.90;;;;;;5059094;28;20227;-64
2021/05/14 05:01:02;;;;;;;49.97;26.50;;;7.90;99.90;;;;;;5063065;28;20307;-63
2021/05/14 05:03:30;;;;;;;43.27;24.13;;;8.00;99.90;;;;;;5060014;28;20215;-63
2021/05/14 05:05:58;;;;;;;47.73;23.53;;;8.00;99.90;;;;;;5059400;28;20199;-64
2021/05/14 05:08:26;;;;;;;41.70;22.53;;;8.10;99.90;;;;;;5062031;28;20189;-63
2021/05/14 05:10:54;;;;;;;37.90;21.30;;;8.30;99.90;;;;;;5060964;28;20203;-64
2021/05/14 05:13:22;;;;;;;35.50;19.47;;;8.40;99.90;;;;;;5067284;28;20220;-64
2021/05/14 05:15:50;;;;;;;35.67;20.33;;;8.50;99.90;;;;;;5059506;28;20675;-63
2021/05/14 05:18:19;;;;;;;28.03;18.07;;;8.70;99.90;;;;;;5060544;28;20192;-63
2021/05/14 05:20:47;;;;;;;29.50;17.07;;;8.90;99.90;;;;;;5062125;28;20273;-63
2021/05/14 05:23:15;;;;;;;29.30;17.90;;;9.10;99.90;;;;;;5060012;28;20203;-64
2021/05/14 05:25:42;;;;;;;24.83;16.90;;;9.30;99.90;;;;;;5059537;28;20223;-63
2021/05/14 05:28:10;;;;;;;23.40;15.70;;;9.40;99.90;;;;;;5063291;28;20231;-64
2021/05/14 05:30:38;;;;;;;17.43;13.47;;;9.60;99.90;;;;;;5066475;28;20196;-64
2021/05/14 05:33:08;;;;;;;18.73;12.30;;;9.80;99.90;;;;;;5064996;28;20200;-64
2021/05/14 05:35:37;;;;;;;18.43;11.17;;;10.00;99.90;;;;;;5060587;28;20224;-63
2021/05/14 05:38:14;;;;;;;13.77;10.77;;;10.00;99.90;;;;;;5064398;28;20269;-64
2021/05/14 05:40:42;;;;;;;13.53;9.63;;;10.10;99.90;;;;;;5064956;28;20254;-63
2021/05/14 05:43:10;;;;;;;11.57;8.63;;;10.20;99.90;;;;;;5063785;28;20192;-63
2021/05/14 05:45:46;;;;;;;11.13;7.90;;;10.40;99.90;;;;;;5059577;28;20555;-64
2021/05/14 05:48:14;;;;;;;8.00;7.30;;;10.50;99.90;;;;;;5065688;28;20748;-64
2021/05/14 05:50:43;;;;;;;8.37;7.30;;;10.70;99.90;;;;;;5060283;28;20276;-63
2021/05/14 05:53:11;;;;;;;7.37;6.37;;;10.90;99.90;;;;;;5066215;28;20249;-63
2021/05/14 05:55:39;;;;;;;7.10;6.40;;;10.80;99.90;;;;;;5065680;28;20261;-64
2021/05/14 05:58:08;;;;;;;7.00;6.30;;;10.90;99.90;;;;;;5065289;28;20226;-63
2021/05/14 06:00:36;;;;;;;8.20;6.50;;;11.00;99.90;;;;;;5064785;28;20230;-64
2021/05/14 06:03:06;;;;;;;7.93;6.47;;;11.10;99.90;;;;;;5064314;28;20881;-64
2021/05/14 06:05:34;;;;;;;7.53;6.37;;;11.00;99.90;;;;;;5062837;28;20626;-64
2021/05/14 06:08:02;;;;;;;6.57;5.87;;;11.10;99.90;;;;;;5064299;28;20188;-64
2021/05/14 06:10:31;;;;;;;7.33;6.63;;;11.00;99.90;;;;;;5061165;28;20212;-64
2021/05/14 06:12:59;;;;;;;8.77;6.43;;;11.10;99.90;;;;;;5062335;28;20275;-63
2021/05/14 06:15:26;;;;;;;8.43;5.83;;;11.30;99.90;;;;;;5062192;28;20188;-64
2021/05/14 06:17:54;;;;;;;11.67;6.10;;;11.50;99.90;;;;;;5063559;28;20196;-64
2021/05/14 06:20:24;;;;;;;8.27;6.00;;;11.70;99.90;;;;;;5062949;28;20200;-64
2021/05/14 06:22:52;;;;;;;8.73;5.90;;;11.80;99.90;;;;;;5056801;28;20211;-64
2021/05/14 06:25:21;;;;;;;9.60;6.20;;;11.90;99.90;;;;;;5060297;28;20623;-64
2021/05/14 06:27:50;;;;;;;7.60;5.37;;;12.10;99.90;;;;;;5062512;28;20207;-64
2021/05/14 06:30:19;;;;;;;5.87;5.27;;;12.30;99.90;;;;;;5063681;28;20196;-65
2021/05/14 06:32:48;;;;;;;6.33;5.43;;;12.40;99.90;;;;;;5052705;28;20197;-64
2021/05/14 06:35:16;;;;;;;6.27;5.67;;;12.50;99.90;;;;;;5059073;28;20235;-63
2021/05/14 06:37:44;;;;;;;5.70;5.30;;;12.40;99.90;;;;;;5059144;28;20323;-63
2021/05/14 06:40:13;;;;;;;6.77;5.83;;;12.40;99.90;;;;;;5059704;28;20224;-64
2021/05/14 06:42:42;;;;;;;7.70;5.73;;;12.30;99.90;;;;;;5065088;28;20238;-63
2021/05/14 06:45:10;;;;;;;6.70;6.00;;;12.30;99.90;;;;;;5063118;28;20754;-64
2021/05/14 06:47:38;;;;;;;8.17;5.53;;;12.70;99.90;;;;;;5060319;28;20192;-64
2021/05/14 06:50:07;;;;;;;6.60;5.57;;;13.10;99.90;;;;;;5062696;28;20291;-64
2021/05/14 06:52:36;;;;;;;6.63;5.83;;;13.60;99.90;;;;;;5064074;28;20206;-64
2021/05/14 06:55:06;;;;;;;5.50;5.10;;;13.70;99.90;;;;;;5061410;28;20185;-64
2021/05/14 06:57:35;;;;;;;5.47;4.97;;;13.70;99.90;;;;;;5057675;28;20851;-64
2021/05/14 07:00:06;;;;;;;4.93;4.63;;;13.80;99.90;;;;;;5057651;28;20690;-64
2021/05/14 07:02:36;;;;;;;9.47;5.30;;;13.80;99.90;;;;;;5060213;28;20234;-64
2021/05/14 07:05:05;;;;;;;4.73;4.43;;;14.00;99.90;;;;;;5055388;28;20214;-64
2021/05/14 07:07:34;;;;;;;4.90;4.60;;;14.00;99.90;;;;;;5063988;28;20240;-64
2021/05/14 07:10:02;;;;;;;6.83;4.80;;;13.90;99.90;;;;;;5064549;28;20199;-64
2021/05/14 07:12:30;;;;;;;5.10;4.53;;;13.90;99.90;;;;;;5064607;28;20192;-64
2021/05/14 07:14:58;;;;;;;4.60;4.23;;;14.30;99.90;;;;;;5064787;28;20200;-64
2021/05/14 07:17:26;;;;;;;5.00;4.67;;;14.40;99.90;;;;;;5063187;28;20220;-65
2021/05/14 07:19:55;;;;;;;5.17;4.50;;;14.30;99.90;;;;;;5060727;28;20671;-64
2021/05/14 07:22:22;;;;;;;6.80;4.87;;;14.80;99.90;;;;;;5065170;28;20197;-64
2021/05/14 07:24:51;;;;;;;4.60;4.27;;;14.80;99.90;;;;;;5062873;28;20573;-64
2021/05/14 07:27:19;;;;;;;4.47;4.10;;;14.50;99.90;;;;;;5066934;28;20275;-64
2021/05/14 07:29:47;;;;;;;4.60;4.20;;;14.50;99.90;;;;;;5066003;28;20225;-65
2021/05/14 07:32:14;;;;;;;5.33;4.10;;;14.80;99.90;;;;;;5064155;28;20703;-64
2021/05/14 07:34:43;;;;;;;4.23;3.80;;;15.40;99.90;;;;;;5062976;28;20230;-64
2021/05/14 07:37:11;;;;;;;4.40;4.10;;;15.20;99.90;;;;;;5062764;28;20193;-64
2021/05/14 07:39:41;;;;;;;4.73;4.43;;;15.00;99.90;;;;;;5067245;28;20693;-65
2021/05/14 07:42:09;;;;;;;4.10;3.90;;;15.70;99.90;;;;;;5066668;28;20188;-65
2021/05/14 07:44:37;;;;;;;3.97;3.77;;;15.90;99.90;;;;;;5062466;28;20228;-64
2021/05/14 07:47:05;;;;;;;3.73;3.63;;;15.90;99.90;;;;;;5068376;28;20239;-64
2021/05/14 07:49:33;;;;;;;9.57;4.43;;;16.20;99.90;;;;;;5062797;28;20201;-65
2021/05/14 07:52:04;;;;;;;4.10;3.80;;;16.20;99.90;;;;;;5060479;28;20777;-64
2021/05/14 07:54:32;;;;;;;5.67;4.37;;;15.80;99.90;;;;;;5054490;28;20227;-64
2021/05/14 07:56:59;;;;;;;4.83;4.33;;;15.60;99.90;;;;;;5059945;28;20196;-64
2021/05/14 07:59:28;;;;;;;5.13;4.63;;;15.50;99.90;;;;;;5063187;28;20187;-64
2021/05/14 08:01:56;;;;;;;4.83;4.40;;;15.30;99.90;;;;;;5062245;28;20219;-64
2021/05/14 08:04:24;;;;;;;4.30;3.83;;;15.60;99.90;;;;;;5064803;28;20212;-64
2021/05/14 08:06:52;;;;;;;4.37;4.00;;;16.00;99.90;;;;;;5064544;28;20663;-64
2021/05/14 08:09:23;;;;;;;4.07;3.87;;;16.20;99.90;;;;;;5063086;28;20254;-64
2021/05/14 08:11:51;;;;;;;4.47;4.00;;;16.90;99.90;;;;;;5066313;28;20291;-64
2021/05/14 08:14:19;;;;;;;5.23;4.17;;;17.10;99.90;;;;;;5056682;28;20651;-64
2021/05/14 08:16:48;;;;;;;4.40;4.00;;;17.30;99.90;;;;;;5053440;28;20242;-64
2021/05/14 08:19:16;;;;;;;4.80;4.50;;;16.70;99.90;;;;;;5058735;28;20287;-64
2021/05/14 08:21:45;;;;;;;4.70;4.30;;;16.30;99.90;;;;;;5058283;28;20200;-64
2021/05/14 08:24:13;;;;;;;4.50;4.10;;;16.20;99.90;;;;;;5059210;28;20620;-64
2021/05/14 08:26:42;;;;;;;6.90;4.90;;;16.30;99.90;;;;;;5052837;28;20234;-64
2021/05/14 08:29:11;;;;;;;4.40;4.10;;;16.90;99.90;;;;;;5061324;28;20855;-64
2021/05/14 08:31:40;;;;;;;5.47;4.30;;;17.20;99.90;;;;;;5056468;28;20306;-64
2021/05/14 08:34:09;;;;;;;5.70;4.43;;;17.60;99.90;;;;;;5057070;28;20296;-64
2021/05/14 08:36:36;;;;;;;4.63;4.30;;;18.10;99.90;;;;;;5059025;28;20195;-64
2021/05/14 08:39:05;;;;;;;5.03;4.47;;;17.50;99.90;;;;;;5055201;28;20264;-64
2021/05/14 08:41:34;;;;;;;4.27;3.97;;;17.30;99.90;;;;;;5078450;28;20200;-65
2021/05/14 08:44:05;;;;;;;4.43;4.03;;;18.10;99.90;;;;;;5055871;28;20199;-64
2021/05/14 08:46:36;;;;;;;3.97;3.67;;;18.10;99.90;;;;;;5058850;28;20188;-64
2021/05/14 08:49:14;;;;;;;3.93;3.63;;;18.90;99.90;;;;;;5059024;28;20188;-65
2021/05/14 08:51:42;;;;;;;4.50;4.10;;;19.40;99.90;;;;;;5061003;28;20197;-65
2021/05/14 08:54:10;;;;;;;4.27;3.70;;;20.80;99.90;;;;;;5060740;28;20186;-63
2021/05/14 08:56:39;;;;;;;3.73;3.30;;;21.40;99.90;;;;;;5057029;28;20858;-63
2021/05/14 08:59:08;;;;;;;4.53;2.80;;;22.30;99.90;;;;;;5060295;28;20196;-63
2021/05/14 09:01:38;;;;;;;4.03;3.27;;;22.00;99.90;;;;;;5056699;28;20200;-63
2021/05/14 09:04:10;;;;;;;3.50;3.30;;;21.30;99.90;;;;;;5056443;28;20199;-63
2021/05/14 09:06:40;;;;;;;3.43;3.03;;;21.30;99.90;;;;;;5055616;28;20185;-64
2021/05/14 09:09:09;;;;;;;3.40;3.10;;;22.00;99.90;;;;;;5055555;28;20262;-63
2021/05/14 09:11:42;;;;;;;3.00;2.90;;;22.70;99.90;;;;;;5058387;28;20196;-65
2021/05/14 09:14:36;;;;;;;3.43;3.10;;;22.40;99.90;;;;;;5057078;28;20571;-63
2021/05/14 09:17:08;;;;;;;3.40;3.20;;;21.00;99.90;;;;;;5055287;28;20197;-65
2021/05/14 09:19:38;;;;;;;3.07;2.90;;;19.60;99.90;;;;;;5053221;28;20189;-64
2021/05/14 09:22:10;;;;;;;3.73;3.43;;;18.70;99.90;;;;;;5059331;28;20201;-64
2021/05/14 09:24:40;;;;;;;4.33;4.13;;;18.20;99.90;;;;;;5056843;28;20220;-64
2021/05/14 09:27:27;;;;;;;6.70;5.00;;;17.50;99.90;;;;;;5060253;28;20220;-66
2021/05/14 09:29:58;;;;;;;3.40;3.20;;;17.10;99.90;;;;;;5056137;28;20736;-66
2021/05/14 09:32:30;;;;;;;4.97;4.23;;;16.70;99.90;;;;;;5056744;28;20200;-66
2021/05/14 09:34:59;;;;;;;4.37;4.07;;;16.40;99.90;;;;;;5061151;28;20192;-66
2021/05/14 09:37:28;;;;;;;4.73;4.33;;;16.40;99.90;;;;;;5056284;28;20294;-66
2021/05/14 09:40:14;;;;;;;4.30;4.00;;;16.40;99.90;;;;;;5059114;28;20188;-66
2021/05/14 09:42:42;;;;;;;4.67;4.17;;;17.30;99.90;;;;;;5059317;28;20219;-66
2021/05/14 09:45:16;;;;;;;3.80;3.47;;;18.60;99.90;;;;;;5058588;28;20208;-66
2021/05/14 09:47:44;;;;;;;4.20;3.80;;;19.60;99.90;;;;;;5053736;28;20250;-67
2021/05/14 09:50:29;;;;;;;4.47;4.17;;;20.10;99.90;;;;;;5059409;28;20198;-67
2021/05/14 09:53:05;;;;;;;4.03;3.67;;;20.20;99.90;;;;;;5054421;28;20240;-65
2021/05/14 09:55:35;;;;;;;4.17;3.87;;;19.80;99.90;;;;;;5057813;28;20229;-66
2021/05/14 09:58:10;;;;;;;4.47;4.03;;;18.80;99.90;;;;;;5055993;28;20196;-66
2021/05/14 10:00:39;;;;;;;4.27;3.93;;;18.00;99.90;;;;;;5054062;28;20204;-66
2021/05/14 10:03:09;;;;;;;5.13;4.73;;;17.40;99.90;;;;;;5052336;28;20652;-66
2021/05/14 10:05:38;;;;;;;5.10;4.70;;;17.00;99.90;;;;;;5058627;28;20231;-66
2021/05/14 10:08:06;;;;;;;6.70;4.63;;;16.70;99.90;;;;;;5058980;28;20200;-66
2021/05/14 10:10:35;;;;;;;4.97;4.50;;;16.50;99.90;;;;;;5060748;28;20291;-65
2021/05/14 10:13:03;;;;;;;4.70;4.30;;;16.40;99.90;;;;;;5059072;28;20208;-65
2021/05/14 10:15:32;;;;;;;5.47;4.97;;;16.30;99.90;;;;;;5058798;28;20195;-65
2021/05/14 10:18:03;;;;;;;5.40;5.00;;;16.30;99.90;;;;;;5056768;28;20284;-65
2021/05/14 10:20:33;;;;;;;6.23;5.00;;;16.60;99.90;;;;;;5056963;28;20265;-65
2021/05/14 10:23:03;;;;;;;7.47;5.50;;;17.00;99.90;;;;;;5059320;28;20555;-65
2021/05/14 10:25:46;;;;;;;5.83;5.20;;;17.50;99.90;;;;;;5058049;28;20204;-65
2021/05/14 10:28:17;;;;;;;8.37;5.93;;;18.30;99.90;;;;;;5057264;28;20570;-65
2021/05/14 10:31:20;;;;;;;5.63;4.80;;;18.90;99.90;;;;;;5060980;28;20260;-66
2021/05/14 10:33:52;;;;;;;4.60;4.20;;;19.30;99.90;;;;;;5059055;28;20189;-66
2021/05/14 10:36:45;;;;;;;5.00;4.10;;;18.70;99.90;;;;;;5057888;28;20203;-65
2021/05/14 10:39:16;;;;;;;4.47;4.03;;;18.60;99.90;;;;;;5056505;28;20698;-65
2021/05/14 10:42:05;;;;;;;4.00;3.60;;;19.00;99.90;;;;;;5061381;28;20225;-65
2021/05/14 10:44:46;;;;;;;3.37;2.80;;;18.80;99.90;;;;;;5062177;28;20655;-65
2021/05/14 10:47:48;;;;;;;3.10;2.80;;;18.60;99.90;;;;;;5068441;28;20222;-65
2021/05/14 10:50:37;;;;;;;3.80;3.50;;;18.20;99.90;;;;;;5063099;28;20227;-65
2021/05/14 10:53:32;;;;;;;3.93;3.17;;;17.80;99.90;;;;;;5059405;28;21270;-65
2021/05/14 10:56:30;;;;;;;4.07;3.67;;;18.10;99.90;;;;;;5049940;28;20453;-65
2021/05/14 10:59:12;;;;;;;4.20;3.73;;;18.00;99.90;;;;;;5064554;28;20220;-65
2021/05/14 11:01:41;;;;;;;4.70;4.30;;;17.80;99.90;;;;;;5067590;28;20219;-65
2021/05/14 11:04:40;;;;;;;4.80;4.00;;;17.60;99.90;;;;;;5065736;28;20196;-66
2021/05/14 11:07:36;;;;;;;5.00;4.50;;;17.70;99.90;;;;;;5051128;28;20239;-65
2021/05/14 11:10:26;;;;;;;4.60;4.30;;;17.50;99.90;;;;;;5062146;28;20300;-65
2021/05/14 11:12:54;;;;;;;5.60;5.20;;;17.40;99.90;;;;;;5051901;28;20200;-65
2021/05/14 11:15:33;;;;;;;6.30;5.73;;;16.90;99.90;;;;;;5066564;28;20200;-65
2021/05/14 11:18:21;;;;;;;6.10;5.53;;;16.50;99.90;;;;;;5056226;28;20226;-66
2021/05/14 11:20:49;;;;;;;10.03;7.37;;;16.40;99.90;;;;;;5062069;28;20201;-68
2021/05/14 11:23:37;;;;;;;10.33;6.00;;;16.30;99.90;;;;;;5060009;28;20196;-68
2021/05/14 11:26:06;;;;;;;6.17;5.30;;;16.30;99.90;;;;;;5066170;28;20264;-68
2021/05/14 11:28:40;;;;;;;5.67;5.13;;;16.40;99.90;;;;;;5065152;28;20228;-68
2021/05/14 11:31:14;;;;;;;8.60;5.60;;;16.50;99.90;;;;;;5058368;28;20196;-68
2021/05/14 11:33:47;;;;;;;7.47;6.10;;;16.60;99.90;;;;;;5052088;28;20236;-66
2021/05/14 11:36:19;;;;;;;5.50;5.00;;;16.90;99.90;;;;;;5059533;28;20195;-66
2021/05/14 11:38:50;;;;;;;5.40;4.90;;;17.30;99.90;;;;;;5049976;28;20326;-66
2021/05/14 11:41:27;;;;;;;6.10;5.00;;;17.80;99.90;;;;;;5058634;28;20228;-66
2021/05/14 11:43:56;;;;;;;4.63;4.23;;;18.60;99.90;;;;;;5056001;28;20231;-67
2021/05/14 11:46:25;;;;;;;4.07;3.83;;;18.90;99.90;;;;;;5060046;28;20212;-66
2021/05/14 11:48:54;;;;;;;4.37;4.03;;;18.70;99.90;;;;;;5053956;28;20196;-66
2021/05/14 11:51:22;;;;;;;4.73;3.47;;;18.30;99.90;;;;;;5059495;28;20896;-67
2021/05/14 11:53:51;;;;;;;3.97;3.73;;;17.90;99.90;;;;;;5053480;28;20204;-67
2021/05/14 11:56:19;;;;;;;3.43;3.33;;;17.90;99.90;;;;;;5060374;28;20264;-67
2021/05/14 11:58:47;;;;;;;4.17;3.77;;;17.80;99.90;;;;;;5050030;28;20222;-67
2021/05/14 12:01:15;;;;;;;3.53;3.23;;;17.80;99.90;;;;;;5060609;28;20783;-67
2021/05/14 12:03:44;;;;;;;3.10;2.90;;;18.20;99.90;;;;;;5056471;28;20823;-67
2021/05/14 12:06:12;;;;;;;3.20;3.10;;;18.60;99.90;;;;;;5059731;28;20239;-67
2021/05/14 12:08:40;;;;;;;4.03;3.70;;;18.60;99.90;;;;;;5063955;28;20745;-67
2021/05/14 12:11:12;;;;;;;3.97;3.67;;;18.50;99.90;;;;;;5062603;28;20199;-67
2021/05/14 12:13:41;;;;;;;3.77;3.57;;;18.40;99.90;;;;;;5063612;28;20188;-67
2021/05/14 12:16:11;;;;;;;3.47;3.27;;;18.40;99.90;;;;;;5057612;28;20215;-67
2021/05/14 12:18:44;;;;;;;5.23;3.60;;;18.50;99.90;;;;;;5050463;28;20188;-67
2021/05/14 12:21:22;;;;;;;3.80;3.60;;;18.70;99.90;;;;;;5060505;28;20734;-67
2021/05/14 12:23:51;;;;;;;3.87;3.67;;;18.70;99.90;;;;;;5059775;28;20230;-67
2021/05/14 12:26:19;;;;;;;3.80;3.50;;;18.90;99.90;;;;;;5068095;28;20212;-67
2021/05/14 12:28:48;;;;;;;4.97;4.17;;;19.10;99.90;;;;;;5060116;28;21001;-67
2021/05/14 12:31:24;;;;;;;4.90;4.53;;;19.30;99.90;;;;;;5060821;28;20195;-67
2021/05/14 12:33:53;;;;;;;5.27;4.37;;;19.10;99.90;;;;;;5030665;28;20242;-67
2021/05/14 12:36:25;;;;;;;4.77;4.43;;;19.20;99.90;;;;;;5058117;28;20196;-67
2021/05/14 12:38:54;;;;;;;4.20;3.80;;;19.50;99.90;;;;;;5054483;28;20232;-67
2021/05/14 12:41:34;;;;;;;4.60;4.20;;;19.40;99.90;;;;;;5063203;28;20196;-67
2021/05/14 12:44:16;;;;;;;3.77;3.40;;;19.10;99.90;;;;;;5054299;28;20200;-67
2021/05/14 12:47:04;;;;;;;3.63;3.43;;;19.00;99.90;;;;;;5063807;28;20311;-67
2021/05/14 12:49:35;;;;;;;3.70;3.40;;;18.80;99.90;;;;;;5059380;28;20192;-67
2021/05/14 12:52:06;;;;;;;6.90;3.50;;;18.60;99.90;;;;;;5062599;28;20291;-67
2021/05/14 12:54:36;;;;;;;3.43;3.23;;;18.40;99.90;;;;;;5059953;28;20192;-68
2021/05/14 12:57:23;;;;;;;3.90;3.60;;;18.00;99.90;;;;;;5055242;28;20473;-66
2021/05/14 12:59:52;;;;;;;3.47;3.33;;;17.70;99.90;;;;;;5066795;28;20213;-67
2021/05/14 13:02:24;;;;;;;3.30;3.20;;;17.60;99.90;;;;;;5058843;28;20840;-67